Aérodrome :
LOGIN :

S'inscrire | Disclaimer

   EN    FR    IT 

 










Légende :    VFR   VFR Marginal   IFR   IFR Intensif   IFR Très Intensif
Visi : 
Plafond : 
>= 8 km
>= 3000ft
5 à 8 km
1000 à 3000 ft
1500m à 5 km
500 à 1000 ft
800 à 1500m
200 à 500 ft
< 800m
< 200 ft
Symboles :   Orages  Brouillard  Fortes neiges  Fortes précipitations  Vent > 20 kt
SIGMETs :   Divers  Orages  Givrage  Turbulence  Onde Orograph.  Cendres Volcan.







- Altitude de l'aérodrome : 1058 ft
- Code IATA : SCN


EDDR - Saarbrücken

DERNIER METAR :
  • 281720Z 23008KT CAVOK 17/07 Q1023 NOSIG

METARs EXPIRÉS :
  • 281650Z 23009KT CAVOK 17/07 Q1022 NOSIG
  • 281620Z 22009KT CAVOK 18/06 Q1022 NOSIG
  • 281550Z 22010KT 190V250 CAVOK 19/06 Q1022 NOSIG
  • 281520Z 23010KT 200V260 CAVOK 19/06 Q1022 NOSIG
  • 281450Z 23006KT 150V290 CAVOK 20/07 Q1022 NOSIG

TAF TAF EDDR
Valide du 28 à 12h jusqu'au 29 à 12h UTC


281100Z 2812/2912 23009KT CAVOK
BECMG 2818/2820 24004KT
BECMG 2910/2912 24009KT
Pas de NOTAMs connus pour ce terrain.



MET'MAP, la Météo Aéronautique d'un coup d'oeil ! - Copyright ORBIFLY Décembre 2007 - Disclaimer

ORBIFLY MET'MAP TEAM :

Programmation & Développement : Alexandra Zaïnal
Conception & Développement : Baudouin d'Aumeries
Co-Programmation & Développement : Marc-Olivier Méhu
Soutien technique & logistique : Manuel Goepfert

Contact : metmap@orbifly.com




SOURCES & CREDITS :

   NOAA